Capitol Logistics 222


KSEA
Seattle-Tacoma International Airport
Seattle, Washington, US
KSMF
Sacramento International Airport
Sacramento, California, US

Activity Log

Date Flight Route Aircraft Duration
08/06/2020 CPX222 SUMMA1 SUMMA JINMO LMT TUDOR2 B763 1h 38m
06/10/2020 CPX222 SUMMA1 SUMMA JINMO LMT TUDOR2 B763 1h 27m
06/27/2019 CPX222 SUMMA1 SUMMA JINMO LMT TUDOR2 B763 1h 37m
05/07/2019 CPX222 SUMMA1 SUMMA JINMO LMT TUDOR2 B763 1h 30m

Route Details

Aircraft Information
Primary: Boeing 767-300BDSF
Backup: Not Available
Route Data
Distance: 527nm
Sched. Duration: 1h 21m
Avg. Duration: 1h 33m (+12m)
Times Flown: 4
Recm'd Route: SUMMA1 SUMMA JINMO LMT TUDOR2
Planned Altitude: 37,000ft
Origin Wx: KSEA 291853Z 00000KT 10SM FEW008 SCT015 OVC024 12/10 A3019 RMK AO2 DZB21E48 SLP231 P0000 T01220100
Dest. Wx: KSMF 291853Z 00000KT 9SM CLR 19/04 A3009 RMK AO2 SLP189 T01940039
Notes:

Financial History
Total Freight: 329,794lbs
Average Load: 82,449lbs/flt
Fuel Used: 57,812lbs
Avg. Fuel Used: 14,453lbs/flt
Fuel Expense: $64,749
Avg. Fuel Expense: $16,187
Avg. Fuel Cost: $1.12/lbs
Total Gross Income: $435,914
Pilot Pay: $496
Total Expenses: $47,287
Total Revenue: $322,866
Average Revenue: $108,978.58